Wilmington, DE

8:14 AM EDT on May 25, 2015 (GMT -0400)
DEOS | | Change Station
CLOSE
Current Station
Personal Weather Station
Location: Greenville, DE
Elevation: 9 ft
Nearby Weather Stations

Elev 9 ft 39.73 °N, 75.52 °W | Updated 34 minutes ago

Clear
Clear
67 °F
Feels Like 67 °F
N
1
Wind Variable Wind from South
Gusts 4.0 mph

Today
High -- | Low -- °F
--% Chance of Precip.
Yesterday
High -- | Low -- °F
Precip. -- in
5:40 AM 8:18 PM
Waxing Crescent, 48% visible
Pressure 30.29 in
Visibility 10.0 miles
Clouds Clear
Dew Point 60 °F
Humidity 78%
Rainfall in
Snow Depth Not available.
UV 2 out of 12
Pollen 9.40 out of 12
Air Quality Not available.
Flu Activity Sporadic
METAR KILG 251151Z AUTO 20006KT 10SM CLR 20/16 A3029 RMK AO2 SLP255 T02000156 10200 20167 53006

More Conditions Fewer Conditions

Pressure 30.29 in
Visibility 10.0 miles
Clouds Clear
Dew Point 60 °F
Humidity 78%
Rainfall in
Snow Depth Not available.
UV 2 out of 12
Pollen 9.40 out of 12
Air Quality Not available.
Flu Activity Sporadic
METAR KILG 251151Z AUTO 20006KT 10SM CLR 20/16 A3029 RMK AO2 SLP255 T02000156 10200 20167 53006

More Conditions Fewer Conditions

10-Day Weather Forecast

Almanac

Astronomy

May. 25, 2015 Rise Set
Actual Time
Civil Twilight
Nautical Twilight
Astronomical Twilight
Moon
Length of Visible Light
Length of Day
Tomorrow will be .
, % of the Moon is Illuminated

Today's Extremes

State Highs State Lows

Community

WunderPhotos

Upload Photos

1,823,986 photos uploaded!

WunderBlogs® & News

Nearby

Air Quality

  Air Quality AQ Index Pollutant
Not available.

Snow Depth

Station Depth Elevation

Earthquake Activity

City Distance Mag. Time & Date
Minimum magnitude displayed is 2.5.

Coastal Water Temperatures

Place Temperature

Stations

Nearby Weather Stations

Station Location Temp. Windchill Dew Point Humidity Wind Precip. Elev Updated Type